Time;durP1;ratioP1;P1;durP2;ratioP2;P2;SDS_P1;SDS_P2;PMS_P1;PMS_P2;Temp;Humidity;BMP_temperature;BMP_pressure;BME280_temperature;BME280_humidity;BME280_pressure;Samples;Min_cycle;Max_cycle;Signal;HPM_P1;HPM_P2
2022/11/18 00:01:16;;;;;;;1.20;0.80;;;6.30;69.10;;;;;;5033079;28;20026;-69
2022/11/18 00:03:43;;;;;;;1.13;1.00;;;6.40;69.40;;;;;;5032825;28;20057;-68
2022/11/18 00:06:14;;;;;;;2.25;1.00;;;6.40;69.80;;;;;;5035148;28;20029;-68
2022/11/18 00:08:40;;;;;;;1.75;1.10;;;6.40;69.70;;;;;;5035177;28;20029;-69
2022/11/18 00:11:08;;;;;;;2.13;0.80;;;6.40;69.60;;;;;;5017292;28;20030;-69
2022/11/18 00:16:21;;;;;;;0.90;0.80;;;6.40;69.70;;;;;;5035029;28;20087;-69
2022/11/18 00:18:46;;;;;;;1.98;1.00;;;6.40;71.00;;;;;;5017634;28;20025;-69
2022/11/18 00:21:12;;;;;;;2.83;0.80;;;6.40;71.20;;;;;;5036220;28;20071;-69
2022/11/18 00:23:39;;;;;;;1.10;0.80;;;6.40;71.10;;;;;;5037943;28;20078;-68
2022/11/18 00:26:14;;;;;;;1.50;0.82;;;6.40;71.50;;;;;;5026358;28;20033;-69
2022/11/18 00:28:40;;;;;;;1.48;0.90;;;6.40;71.40;;;;;;5038869;28;20041;-68
2022/11/18 00:31:09;;;;;;;3.17;0.90;;;6.30;71.70;;;;;;5003905;28;20319;-69
2022/11/18 00:33:37;;;;;;;0.88;0.75;;;6.40;71.70;;;;;;5027375;28;20343;-69
2022/11/18 00:36:04;;;;;;;5.25;1.40;;;6.30;71.30;;;;;;5022647;28;20049;-68
2022/11/18 00:38:30;;;;;;;1.33;0.80;;;6.30;71.00;;;;;;5020718;28;20033;-69
2022/11/18 00:41:07;;;;;;;2.33;0.88;;;6.30;70.40;;;;;;5021896;28;20033;-68
2022/11/18 00:43:34;;;;;;;3.05;0.82;;;6.40;70.30;;;;;;5015694;28;20030;-69
2022/11/18 00:46:00;;;;;;;2.45;0.80;;;6.30;70.80;;;;;;5024500;28;20036;-69
2022/11/18 00:48:26;;;;;;;2.08;0.70;;;6.30;70.50;;;;;;5024975;28;20294;-68
2022/11/18 00:50:54;;;;;;;2.88;0.80;;;6.30;71.40;;;;;;5029426;28;20096;-68
2022/11/18 00:53:21;;;;;;;2.13;0.90;;;6.30;71.00;;;;;;5024596;28;20291;-68
2022/11/18 00:55:47;;;;;;;1.45;0.90;;;6.30;70.60;;;;;;5030096;28;20049;-69
2022/11/18 00:58:17;;;;;;;4.28;1.00;;;6.30;70.60;;;;;;5019831;28;20021;-70
2022/11/18 01:00:49;;;;;;;1.77;0.90;;;6.30;70.00;;;;;;5020456;28;20064;-70
2022/11/18 01:03:14;;;;;;;1.70;0.75;;;6.30;69.90;;;;;;5029735;28;20410;-69
2022/11/18 01:05:40;;;;;;;3.80;0.90;;;6.30;69.90;;;;;;5027109;28;20034;-69
2022/11/18 01:08:08;;;;;;;2.08;0.80;;;6.30;69.70;;;;;;5023597;28;20446;-69
2022/11/18 01:10:35;;;;;;;2.25;0.90;;;6.30;69.50;;;;;;5033193;28;20037;-69
2022/11/18 01:13:20;;;;;;;1.77;0.90;;;6.30;69.70;;;;;;5033104;28;20357;-69
2022/11/18 01:15:54;;;;;;;3.55;0.98;;;6.40;70.00;;;;;;5019515;28;20080;-69
2022/11/18 01:18:23;;;;;;;3.15;1.20;;;6.30;69.90;;;;;;5029934;28;20026;-69
2022/11/18 01:20:49;;;;;;;1.92;1.00;;;6.40;69.70;;;;;;5016315;28;20033;-69
2022/11/18 01:23:15;;;;;;;1.95;0.90;;;6.40;69.50;;;;;;5029695;28;20372;-69
2022/11/18 01:25:42;;;;;;;1.65;0.90;;;6.40;70.10;;;;;;5027490;28;20025;-70
2022/11/18 01:28:08;;;;;;;1.48;0.80;;;6.40;69.60;;;;;;5027614;28;20132;-69
2022/11/18 01:30:36;;;;;;;1.45;0.90;;;6.40;70.00;;;;;;5031158;28;20033;-69
2022/11/18 01:33:03;;;;;;;5.57;1.00;;;6.40;70.10;;;;;;5021019;28;20036;-69
2022/11/18 01:35:40;;;;;;;1.23;0.80;;;6.40;70.80;;;;;;5025719;28;20031;-69
2022/11/18 01:38:08;;;;;;;2.45;0.80;;;6.40;70.20;;;;;;5023014;28;20079;-69
2022/11/18 01:40:35;;;;;;;1.83;0.77;;;6.50;69.60;;;;;;5031023;28;20041;-69
2022/11/18 01:43:01;;;;;;;1.20;0.80;;;6.40;71.30;;;;;;5033144;28;20614;-69
2022/11/18 01:45:37;;;;;;;1.67;0.80;;;6.40;70.70;;;;;;5036170;28;20021;-69
2022/11/18 01:48:13;;;;;;;2.20;1.00;;;6.40;71.00;;;;;;5026462;28;20030;-70
2022/11/18 01:50:46;;;;;;;2.10;1.00;;;6.40;70.90;;;;;;5028522;28;20388;-69
2022/11/18 01:53:27;;;;;;;1.38;0.90;;;6.40;69.20;;;;;;5025318;28;20057;-70
2022/11/18 01:55:56;;;;;;;1.42;0.80;;;6.50;69.10;;;;;;4937689;28;20121;-71
2022/11/18 01:58:33;;;;;;;2.60;0.80;;;6.40;69.80;;;;;;5026665;28;20365;-70
2022/11/18 02:00:59;;;;;;;1.42;0.80;;;6.50;69.70;;;;;;5019219;28;20026;-70
2022/11/18 02:03:26;;;;;;;3.25;1.15;;;6.40;70.10;;;;;;5028189;28;20033;-70
2022/11/18 02:05:53;;;;;;;2.53;1.25;;;6.40;69.00;;;;;;5009564;28;20026;-69
2022/11/18 02:08:20;;;;;;;3.05;1.20;;;6.40;69.30;;;;;;5022352;28;20049;-69
2022/11/18 02:10:46;;;;;;;3.15;1.50;;;6.50;68.90;;;;;;5037150;28;20100;-69
2022/11/18 02:13:13;;;;;;;4.15;1.38;;;6.40;69.50;;;;;;5029868;28;20117;-69
2022/11/18 02:15:49;;;;;;;3.78;1.20;;;6.40;69.30;;;;;;5034559;28;20048;-70
2022/11/18 02:19:05;;;;;;;2.90;1.10;;;6.40;68.60;;;;;;5035407;28;20025;-70
2022/11/18 02:22:12;;;;;;;3.55;1.15;;;6.40;68.00;;;;;;4994881;28;20470;-69
2022/11/18 02:24:55;;;;;;;2.60;1.10;;;6.40;68.80;;;;;;5002584;28;20071;-69
2022/11/18 02:28:03;;;;;;;1.95;1.17;;;6.40;68.20;;;;;;5014454;28;20083;-69
2022/11/18 02:30:33;;;;;;;2.33;1.10;;;6.40;67.90;;;;;;5008637;28;20430;-69
2022/11/18 02:33:14;;;;;;;2.95;1.20;;;6.40;67.80;;;;;;5009447;28;20159;-69
2022/11/18 02:35:50;;;;;;;3.75;1.70;;;6.40;67.60;;;;;;5012496;28;20025;-69
2022/11/18 02:38:27;;;;;;;1.73;0.98;;;6.30;67.60;;;;;;5009686;28;20069;-69
2022/11/18 02:41:00;;;;;;;2.60;1.15;;;6.40;66.80;;;;;;5013113;28;20071;-69
2022/11/18 02:43:45;;;;;;;1.85;0.90;;;6.40;66.70;;;;;;5012588;28;20026;-69
2022/11/18 02:46:34;;;;;;;2.05;1.15;;;6.50;66.60;;;;;;4956596;28;20514;-68
2022/11/18 02:49:05;;;;;;;2.85;1.70;;;6.50;67.40;;;;;;5026664;28;20556;-69
2022/11/18 02:51:32;;;;;;;2.50;1.20;;;6.50;67.60;;;;;;5039839;28;20330;-69
2022/11/18 02:54:02;;;;;;;34.13;3.25;;;6.50;68.30;;;;;;5033943;28;20033;-69
2022/11/18 02:56:32;;;;;;;25.08;3.72;;;6.50;68.10;;;;;;5034122;28;20033;-69
2022/11/18 02:58:57;;;;;;;4.72;2.78;;;6.40;68.70;;;;;;5024175;28;20026;-70
2022/11/18 03:01:27;;;;;;;5.85;3.47;;;6.40;68.00;;;;;;5029377;28;20034;-71
2022/11/18 03:03:53;;;;;;;5.25;3.58;;;6.30;67.40;;;;;;5025590;28;20045;-70
2022/11/18 03:06:38;;;;;;;5.85;3.42;;;6.30;67.40;;;;;;5023694;28;20409;-69
2022/11/18 03:09:12;;;;;;;11.30;3.63;;;6.30;66.60;;;;;;5030941;28;20037;-68
2022/11/18 03:11:58;;;;;;;;;;;6.30;66.30;;;;;;5031590;28;20021;-68
2022/11/18 03:14:48;;;;;;;8.98;4.13;;;6.40;65.80;;;;;;5019221;28;20401;-70
2022/11/18 03:17:44;;;;;;;7.45;5.03;;;6.40;66.30;;;;;;5020825;28;20101;-69
2022/11/18 03:20:35;;;;;;;17.48;15.88;;;6.30;66.40;;;;;;5018232;28;20498;-69
2022/11/18 03:23:33;;;;;;;8.07;5.55;;;6.40;65.90;;;;;;5021337;28;20022;-69
2022/11/18 03:26:08;;;;;;;6.47;5.88;;;6.40;65.90;;;;;;5009616;28;20042;-69
2022/11/18 03:28:53;;;;;;;4.80;3.17;;;6.50;65.50;;;;;;5023787;28;20054;-70
2022/11/18 03:31:36;;;;;;;7.65;6.88;;;6.60;65.90;;;;;;5020363;28;20508;-69
2022/11/18 03:34:08;;;;;;;10.20;9.20;;;6.50;66.90;;;;;;5019004;28;20053;-69
2022/11/18 03:36:39;;;;;;;5.25;4.25;;;6.50;66.40;;;;;;4995838;28;20040;-69
2022/11/18 03:39:07;;;;;;;6.88;4.38;;;6.50;66.20;;;;;;5024557;28;20033;-69
2022/11/18 03:41:38;;;;;;;6.10;5.47;;;6.50;66.90;;;;;;5024571;28;20113;-69
2022/11/18 03:44:10;;;;;;;5.13;3.45;;;6.50;66.50;;;;;;5017245;28;20434;-70
2022/11/18 03:46:51;;;;;;;8.10;5.10;;;6.50;66.70;;;;;;5021730;28;20018;-69
2022/11/18 03:49:32;;;;;;;6.45;4.22;;;6.40;67.10;;;;;;5016799;28;20041;-69
2022/11/18 03:52:06;;;;;;;6.00;3.70;;;6.40;66.50;;;;;;5016211;28;20533;-69
2022/11/18 03:54:34;;;;;;;6.40;4.05;;;6.40;66.20;;;;;;5022164;28;20024;-69
2022/11/18 03:57:05;;;;;;;6.63;3.80;;;6.40;66.00;;;;;;5020451;28;20033;-69
2022/11/18 03:59:34;;;;;;;6.53;4.15;;;6.40;66.30;;;;;;4999105;28;20034;-69
2022/11/18 04:02:15;;;;;;;6.43;4.28;;;6.40;66.00;;;;;;4998813;28;20116;-69
2022/11/18 04:04:44;;;;;;;9.40;5.28;;;6.30;65.70;;;;;;5031359;28;20045;-69
2022/11/18 04:07:12;;;;;;;7.53;5.13;;;6.40;65.40;;;;;;5024334;28;20059;-69
2022/11/18 04:09:46;;;;;;;6.28;4.72;;;6.30;65.60;;;;;;5025068;28;20022;-69
2022/11/18 04:12:15;;;;;;;9.48;5.50;;;6.30;65.40;;;;;;5028466;28;20035;-69
2022/11/18 04:14:43;;;;;;;10.32;5.85;;;6.40;65.00;;;;;;5030802;28;20029;-69
2022/11/18 04:17:18;;;;;;;6.63;4.00;;;6.40;65.00;;;;;;5054118;28;20029;-69
2022/11/18 04:19:44;;;;;;;7.90;4.72;;;6.40;65.00;;;;;;5038890;28;20049;-69
2022/11/18 04:22:10;;;;;;;5.82;3.67;;;6.30;65.00;;;;;;5034779;28;20078;-70
2022/11/18 04:24:36;;;;;;;7.50;4.72;;;6.40;64.90;;;;;;5035185;28;20101;-69
2022/11/18 04:27:03;;;;;;;9.10;4.05;;;6.40;65.00;;;;;;5028426;28;20021;-69
2022/11/18 04:29:33;;;;;;;8.00;4.78;;;6.40;64.70;;;;;;5021954;28;20037;-70
2022/11/18 04:32:00;;;;;;;7.47;5.10;;;6.40;64.90;;;;;;5024426;28;20103;-70
2022/11/18 04:34:26;;;;;;;6.45;4.30;;;6.40;64.80;;;;;;5030809;28;20036;-69
2022/11/18 04:36:51;;;;;;;9.55;5.90;;;6.40;64.90;;;;;;5029104;28;20594;-69
2022/11/18 04:39:17;;;;;;;7.43;4.57;;;6.40;65.00;;;;;;5022343;28;20018;-69
2022/11/18 04:41:56;;;;;;;6.68;4.35;;;6.30;64.90;;;;;;5031805;28;20288;-69
2022/11/18 04:44:33;;;;;;;3.60;2.00;;;6.30;65.00;;;;;;5022540;28;20048;-69
2022/11/18 04:47:01;;;;;;;4.60;1.70;;;6.20;66.30;;;;;;5028059;28;20028;-69
2022/11/18 04:49:27;;;;;;;3.08;1.60;;;6.00;68.40;;;;;;5027838;28;20032;-69
2022/11/18 04:51:54;;;;;;;3.75;1.35;;;5.90;71.10;;;;;;5027246;28;20025;-69
2022/11/18 04:54:21;;;;;;;5.45;1.90;;;5.90;69.80;;;;;;5024563;28;20065;-69
2022/11/18 04:56:47;;;;;;;5.10;2.17;;;5.90;70.30;;;;;;5021516;28;20029;-70
2022/11/18 04:59:19;;;;;;;3.90;1.85;;;5.80;70.00;;;;;;5021785;28;20048;-69
2022/11/18 05:01:44;;;;;;;2.95;1.42;;;5.90;69.60;;;;;;5025713;28;20030;-69
2022/11/18 05:04:15;;;;;;;3.35;1.55;;;5.90;69.70;;;;;;5027908;28;20025;-69
2022/11/18 05:06:41;;;;;;;5.88;2.90;;;5.90;70.70;;;;;;5028416;28;20099;-69
2022/11/18 05:09:07;;;;;;;3.88;2.00;;;5.80;70.80;;;;;;5023812;28;20211;-69
2022/11/18 05:14:26;;;;;;;3.50;1.65;;;5.80;71.00;;;;;;5005394;28;20296;-70
2022/11/18 05:16:53;;;;;;;3.22;1.92;;;5.80;71.00;;;;;;5026198;28;20025;-69
2022/11/18 05:19:18;;;;;;;3.58;1.60;;;5.80;70.80;;;;;;5019698;28;20096;-69
2022/11/18 05:21:47;;;;;;;4.95;2.38;;;5.80;70.40;;;;;;5027193;28;20046;-69
2022/11/18 05:24:13;;;;;;;5.70;1.80;;;5.80;70.40;;;;;;5022081;28;20079;-69
2022/11/18 05:26:38;;;;;;;5.60;2.70;;;5.80;69.80;;;;;;5029341;28;20104;-70
2022/11/18 05:29:04;;;;;;;4.18;2.00;;;5.80;69.40;;;;;;5024183;28;20474;-69
2022/11/18 05:31:30;;;;;;;3.88;2.00;;;5.80;69.30;;;;;;5016549;28;20064;-70
2022/11/18 05:33:57;;;;;;;7.03;2.33;;;5.80;68.50;;;;;;5012022;28;20053;-69
2022/11/18 05:36:23;;;;;;;7.28;4.15;;;5.80;68.70;;;;;;5029722;28;20036;-69
2022/11/18 05:38:49;;;;;;;4.65;2.30;;;5.80;68.70;;;;;;5029733;28;20072;-69
2022/11/18 05:44:00;;;;;;;7.60;4.72;;;5.90;67.60;;;;;;5028939;28;20911;-69
2022/11/18 05:46:26;;;;;;;13.73;8.13;;;6.00;67.90;;;;;;5027648;28;20021;-69
2022/11/18 05:48:52;;;;;;;10.38;6.55;;;6.00;67.80;;;;;;5034953;28;20367;-69
2022/11/18 05:51:18;;;;;;;7.25;4.55;;;6.00;67.60;;;;;;5033644;28;20087;-68
2022/11/18 05:53:43;;;;;;;6.53;4.22;;;6.00;67.70;;;;;;5031092;28;20035;-70
2022/11/18 05:56:43;;;;;;;5.90;3.15;;;6.00;67.50;;;;;;5035534;28;20030;-70
2022/11/18 05:59:11;;;;;;;8.75;3.33;;;6.00;67.20;;;;;;5030215;28;20103;-70
2022/11/18 06:01:39;;;;;;;5.70;2.70;;;6.00;67.00;;;;;;5020693;28;20303;-69
2022/11/18 06:04:31;;;;;;;5.53;2.90;;;6.00;66.80;;;;;;5032118;28;20026;-70
2022/11/18 06:07:04;;;;;;;5.72;2.45;;;6.00;67.00;;;;;;5024602;28;20026;-70
2022/11/18 06:09:36;;;;;;;6.25;3.58;;;6.00;66.70;;;;;;5026656;28;20029;-69
2022/11/18 06:12:03;;;;;;;8.55;3.85;;;6.00;66.70;;;;;;5031476;28;20022;-69
2022/11/18 06:14:41;;;;;;;5.88;2.50;;;5.90;67.10;;;;;;5036449;28;20028;-70
2022/11/18 06:17:14;;;;;;;3.70;1.70;;;5.90;66.80;;;;;;5033115;28;20057;-70
2022/11/18 06:19:41;;;;;;;4.40;2.28;;;5.90;67.30;;;;;;5021575;28;20250;-69
2022/11/18 06:22:08;;;;;;;3.20;1.60;;;5.80;67.90;;;;;;5034349;28;20029;-70
2022/11/18 06:24:34;;;;;;;2.80;1.40;;;5.80;67.30;;;;;;5045840;28;20200;-70
2022/11/18 06:27:01;;;;;;;4.63;2.10;;;5.80;67.30;;;;;;5022607;28;20370;-70
2022/11/18 06:29:27;;;;;;;6.15;3.45;;;5.80;67.50;;;;;;5031302;28;20426;-69
2022/11/18 06:31:53;;;;;;;4.82;2.10;;;5.80;67.20;;;;;;5020312;28;20061;-69
2022/11/18 06:34:19;;;;;;;2.20;1.25;;;5.80;67.30;;;;;;5038270;28;20068;-69
2022/11/18 06:36:44;;;;;;;4.97;2.30;;;5.70;68.20;;;;;;5033739;28;20108;-70
2022/11/18 06:39:10;;;;;;;3.67;1.83;;;5.70;67.80;;;;;;5004661;28;20619;-70
2022/11/18 06:41:36;;;;;;;7.57;4.35;;;5.70;67.60;;;;;;5028742;28;20034;-69
2022/11/18 06:44:02;;;;;;;5.18;3.00;;;5.70;67.50;;;;;;5033961;28;20017;-69
2022/11/18 06:49:12;;;;;;;5.03;3.65;;;5.60;67.40;;;;;;5024172;28;20382;-69
2022/11/18 06:51:39;;;;;;;4.28;2.30;;;5.60;67.10;;;;;;5013112;28;20446;-69
2022/11/18 06:54:05;;;;;;;4.03;2.33;;;5.70;66.80;;;;;;5015629;28;20058;-70
2022/11/18 06:56:30;;;;;;;5.00;2.42;;;5.70;66.60;;;;;;5019992;28;20092;-70
2022/11/18 06:58:58;;;;;;;3.80;2.13;;;5.70;66.40;;;;;;5014987;28;20427;-69
2022/11/18 07:01:26;;;;;;;4.55;2.40;;;5.80;66.40;;;;;;4998935;28;20030;-69
2022/11/18 07:03:53;;;;;;;3.72;2.10;;;5.80;66.10;;;;;;5030709;28;20367;-69
2022/11/18 07:06:21;;;;;;;4.00;2.20;;;5.90;66.20;;;;;;5031771;28;20057;-69
2022/11/18 07:08:48;;;;;;;5.25;3.50;;;5.90;66.60;;;;;;5003196;28;20030;-70
2022/11/18 07:11:17;;;;;;;6.93;3.42;;;5.90;66.90;;;;;;5032489;28;20064;-69
2022/11/18 07:13:44;;;;;;;7.35;4.05;;;5.90;66.60;;;;;;5030566;28;20029;-69
2022/11/18 07:16:15;;;;;;;5.65;3.08;;;5.90;66.90;;;;;;5039937;28;20437;-69
2022/11/18 07:18:43;;;;;;;6.30;3.25;;;5.90;67.30;;;;;;5053729;28;20029;-69
2022/11/18 07:21:14;;;;;;;9.90;4.97;;;5.90;67.60;;;;;;5047483;28;20310;-69
2022/11/18 07:23:43;;;;;;;5.88;3.25;;;5.90;68.30;;;;;;5055703;28;20021;-69
2022/11/18 07:26:09;;;;;;;7.90;4.18;;;5.90;68.30;;;;;;5042309;28;20022;-69
2022/11/18 07:28:35;;;;;;;5.35;2.10;;;5.90;68.60;;;;;;5034218;28;20037;-69
2022/11/18 07:31:03;;;;;;;5.03;3.10;;;5.80;71.10;;;;;;5039119;28;20061;-69
2022/11/18 07:33:30;;;;;;;2.67;1.30;;;5.80;71.50;;;;;;5055453;28;20024;-69
2022/11/18 07:36:06;;;;;;;3.63;1.60;;;5.80;71.90;;;;;;5056541;28;20036;-69
2022/11/18 07:38:32;;;;;;;4.32;1.40;;;5.90;72.80;;;;;;5034344;28;20044;-69
2022/11/18 07:41:07;;;;;;;3.83;2.00;;;5.90;74.60;;;;;;5036688;28;20049;-69
2022/11/18 07:43:34;;;;;;;5.07;3.53;;;5.90;76.10;;;;;;5030128;28;20017;-69
2022/11/18 07:46:21;;;;;;;2.17;1.15;;;6.00;75.00;;;;;;5030514;28;20322;-69
2022/11/18 07:48:48;;;;;;;1.92;1.20;;;6.00;80.60;;;;;;5036183;28;20021;-69
2022/11/18 07:51:16;;;;;;;3.38;1.67;;;6.00;88.40;;;;;;5036514;28;20449;-68
2022/11/18 07:53:42;;;;;;;2.28;1.20;;;6.00;88.50;;;;;;5031169;28;20057;-69
2022/11/18 07:56:09;;;;;;;2.60;1.40;;;5.90;89.70;;;;;;5016357;28;20415;-70
2022/11/18 07:58:35;;;;;;;3.45;2.00;;;5.90;88.60;;;;;;5043244;28;20418;-69
2022/11/18 08:01:09;;;;;;;2.70;1.60;;;6.00;86.80;;;;;;5034044;28;20026;-69
2022/11/18 08:03:35;;;;;;;2.55;1.20;;;6.00;86.30;;;;;;5031940;28;20030;-69
2022/11/18 08:06:02;;;;;;;2.28;1.20;;;6.10;87.80;;;;;;5034782;28;20159;-69
2022/11/18 08:08:27;;;;;;;3.33;1.85;;;6.20;88.20;;;;;;5035033;28;20037;-69
2022/11/18 08:10:58;;;;;;;1.65;1.00;;;6.20;87.00;;;;;;5035813;28;20031;-68
2022/11/18 08:13:28;;;;;;;3.10;1.20;;;6.30;89.20;;;;;;5034543;28;20065;-70
2022/11/18 08:15:55;;;;;;;3.53;1.70;;;6.30;88.40;;;;;;5023305;28;20037;-69
2022/11/18 08:18:21;;;;;;;3.33;1.40;;;6.30;88.20;;;;;;5035903;28;20033;-68
2022/11/18 08:20:47;;;;;;;3.05;1.73;;;6.40;90.50;;;;;;5034007;28;20080;-68
2022/11/18 08:23:14;;;;;;;2.60;1.38;;;6.40;89.70;;;;;;5031001;28;20639;-68
2022/11/18 08:25:41;;;;;;;3.25;1.50;;;6.40;89.80;;;;;;5017397;28;20026;-69
2022/11/18 08:28:08;;;;;;;3.50;1.98;;;6.40;88.00;;;;;;5035736;28;20148;-69
2022/11/18 08:30:37;;;;;;;3.42;1.73;;;6.40;89.40;;;;;;5023873;28;20061;-68
2022/11/18 08:33:03;;;;;;;3.58;1.90;;;6.50;88.30;;;;;;5034165;28;20025;-68
2022/11/18 08:35:30;;;;;;;2.90;1.48;;;6.50;88.10;;;;;;5028055;28;20029;-68
2022/11/18 08:37:56;;;;;;;3.92;1.90;;;6.50;88.30;;;;;;5034563;28;20083;-67
2022/11/18 08:40:25;;;;;;;2.55;1.40;;;6.50;87.80;;;;;;5017699;28;20088;-68
2022/11/18 08:42:51;;;;;;;4.55;1.50;;;6.50;88.10;;;;;;5034386;28;20029;-68
2022/11/18 08:45:17;;;;;;;3.00;1.80;;;6.60;87.40;;;;;;5034756;28;20022;-67
2022/11/18 08:47:43;;;;;;;4.50;2.42;;;6.60;87.30;;;;;;5035627;28;20414;-69
2022/11/18 08:50:11;;;;;;;7.63;5.13;;;6.70;86.60;;;;;;5048580;28;20039;-69
2022/11/18 08:52:37;;;;;;;3.45;1.48;;;6.60;85.80;;;;;;5018156;28;20041;-69
2022/11/18 08:55:03;;;;;;;3.22;1.55;;;6.60;86.30;;;;;;5015823;28;20030;-71
2022/11/18 08:57:29;;;;;;;4.85;2.60;;;6.60;85.30;;;;;;5028808;28;20033;-69
2022/11/18 08:59:54;;;;;;;7.05;2.70;;;6.60;82.90;;;;;;5036683;28;20025;-69
2022/11/18 09:02:22;;;;;;;5.45;2.90;;;6.60;80.60;;;;;;5035014;28;20143;-69
2022/11/18 09:04:49;;;;;;;5.05;3.10;;;6.70;79.80;;;;;;5017598;28;20033;-70
2022/11/18 09:07:16;;;;;;;4.25;2.20;;;6.80;80.80;;;;;;5014667;28;20092;-69
2022/11/18 09:09:42;;;;;;;3.08;1.65;;;6.90;80.40;;;;;;5024158;28;20036;-69
2022/11/18 09:12:08;;;;;;;5.43;2.88;;;6.90;82.40;;;;;;5022283;28;20319;-68
2022/11/18 09:14:34;;;;;;;5.60;2.53;;;6.90;83.30;;;;;;5016704;28;20026;-69
2022/11/18 09:17:00;;;;;;;4.93;2.45;;;6.90;83.00;;;;;;5015612;28;20022;-69
2022/11/18 09:19:26;;;;;;;2.55;1.38;;;6.90;80.60;;;;;;5015584;28;20022;-69
2022/11/18 09:21:52;;;;;;;4.75;1.77;;;7.00;83.70;;;;;;5034243;28;20441;-69
2022/11/18 09:24:17;;;;;;;3.72;1.73;;;7.00;82.20;;;;;;5016637;28;20055;-69
2022/11/18 09:26:43;;;;;;;4.68;1.35;;;7.00;82.70;;;;;;5019462;28;20100;-69
2022/11/18 09:29:10;;;;;;;6.18;1.90;;;7.00;83.30;;;;;;5035113;28;20046;-69
2022/11/18 09:31:36;;;;;;;3.33;1.58;;;7.00;83.20;;;;;;5019323;28;20037;-68
2022/11/18 09:34:02;;;;;;;3.78;1.40;;;7.00;83.70;;;;;;5015323;28;20029;-69
2022/11/18 09:36:28;;;;;;;2.30;1.15;;;7.00;85.20;;;;;;5022095;28;20300;-69
2022/11/18 09:38:54;;;;;;;4.65;1.30;;;7.00;84.80;;;;;;5017066;28;20033;-69
2022/11/18 09:41:29;;;;;;;3.03;1.40;;;6.90;83.40;;;;;;5028779;28;20120;-69
2022/11/18 09:44:19;;;;;;;4.30;1.35;;;7.00;83.70;;;;;;5035099;28;20049;-69
2022/11/18 09:47:15;;;;;;;3.35;1.60;;;6.90;84.00;;;;;;5017469;28;20034;-69
2022/11/18 09:49:43;;;;;;;3.55;1.75;;;6.90;83.70;;;;;;5015506;28;20343;-69
2022/11/18 09:52:20;;;;;;;6.05;2.10;;;6.90;82.20;;;;;;5016189;28;20473;-69
2022/11/18 09:54:46;;;;;;;3.50;1.40;;;7.00;82.50;;;;;;5023703;28;20138;-68
2022/11/18 09:57:16;;;;;;;2.08;1.10;;;7.00;86.80;;;;;;5013116;28;20026;-69
2022/11/18 09:59:45;;;;;;;4.55;2.05;;;7.00;90.30;;;;;;5022722;28;20021;-69
2022/11/18 10:02:44;;;;;;;3.08;1.38;;;7.00;89.70;;;;;;5035041;28;20314;-69
2022/11/18 10:05:32;;;;;;;2.92;1.30;;;6.90;86.40;;;;;;5022300;28;20022;-68
2022/11/18 10:08:02;;;;;;;3.15;1.40;;;7.10;83.40;;;;;;5031875;28;20065;-69
2022/11/18 10:10:54;;;;;;;3.45;1.42;;;7.10;85.20;;;;;;5037911;28;20033;-68
2022/11/18 10:13:47;;;;;;;2.47;1.30;;;7.10;87.60;;;;;;5037186;28;20025;-69
2022/11/18 10:16:25;;;;;;;3.75;1.60;;;7.20;88.40;;;;;;5018672;28;20034;-69
2022/11/18 10:19:00;;;;;;;3.75;1.83;;;7.30;87.30;;;;;;5024816;28;20377;-69
2022/11/18 10:21:52;;;;;;;3.13;1.42;;;7.30;87.30;;;;;;5052099;28;20056;-68
2022/11/18 10:24:20;;;;;;;1.80;0.95;;;7.30;90.50;;;;;;5050386;28;20088;-68
2022/11/18 10:26:46;;;;;;;2.63;1.10;;;7.30;90.50;;;;;;5053581;28;20047;-70
2022/11/18 10:29:12;;;;;;;4.15;1.50;;;7.30;91.60;;;;;;5008954;28;20096;-69
2022/11/18 10:32:01;;;;;;;2.92;1.50;;;7.40;88.50;;;;;;5006581;28;20031;-68
2022/11/18 10:34:27;;;;;;;3.22;1.30;;;7.50;88.60;;;;;;4999077;28;20022;-69
2022/11/18 10:37:02;;;;;;;3.10;1.50;;;7.60;94.10;;;;;;4981013;28;20125;-68
2022/11/18 10:39:28;;;;;;;3.53;1.60;;;7.70;92.00;;;;;;4999100;28;20034;-69
2022/11/18 10:42:04;;;;;;;10.23;4.32;;;7.80;95.80;;;;;;4998246;28;20089;-68
2022/11/18 10:44:37;;;;;;;11.70;5.45;;;8.00;94.60;;;;;;4998663;28;20027;-68
2022/11/18 10:47:24;;;;;;;4.32;2.10;;;8.10;96.00;;;;;;4981300;28;20324;-68
2022/11/18 10:49:51;;;;;;;4.15;1.88;;;8.00;95.60;;;;;;4999475;28;20110;-68
2022/11/18 10:52:17;;;;;;;1.90;1.00;;;8.10;96.30;;;;;;5014266;28;20842;-69
2022/11/18 10:54:44;;;;;;;2.63;1.00;;;8.10;97.90;;;;;;5008887;28;20423;-69
2022/11/18 10:57:10;;;;;;;4.40;2.17;;;8.00;98.00;;;;;;4998259;28;20030;-68
2022/11/18 11:00:05;;;;;;;2.70;1.30;;;7.90;98.00;;;;;;5005179;28;20030;-69
2022/11/18 11:02:40;;;;;;;2.53;1.20;;;7.80;98.00;;;;;;4980611;28;20062;-67
2022/11/18 11:05:19;;;;;;;7.03;4.30;;;7.80;98.00;;;;;;5008822;28;20109;-69
2022/11/18 11:07:44;;;;;;;3.70;2.10;;;7.80;98.00;;;;;;5012028;28;20014;-68
2022/11/18 11:10:11;;;;;;;2.63;1.40;;;7.80;97.60;;;;;;5011830;28;20029;-68
2022/11/18 11:12:46;;;;;;;4.68;1.73;;;7.80;97.60;;;;;;5016688;28;20053;-68
2022/11/18 11:15:33;;;;;;;4.22;1.45;;;7.70;97.30;;;;;;5009034;28;20030;-68
2022/11/18 11:20:53;;;;;;;1.48;0.98;;;7.50;95.80;;;;;;4998978;28;20049;-68
2022/11/18 11:23:19;;;;;;;2.70;1.27;;;7.40;97.30;;;;;;4994817;28;20026;-67
2022/11/18 11:25:55;;;;;;;4.65;2.00;;;7.40;96.10;;;;;;4992352;28;20028;-70
2022/11/18 11:28:27;;;;;;;5.80;2.20;;;7.30;93.90;;;;;;5010755;28;20532;-68
2022/11/18 11:31:23;;;;;;;4.95;2.33;;;7.10;92.90;;;;;;5017181;28;20125;-68
2022/11/18 11:33:51;;;;;;;7.53;4.13;;;6.90;90.30;;;;;;5022427;28;20033;-68
2022/11/18 11:36:35;;;;;;;9.35;4.57;;;6.90;88.10;;;;;;5038089;28;20102;-68
2022/11/18 11:39:19;;;;;;;8.00;4.25;;;6.90;88.80;;;;;;5023237;28;20021;-68
2022/11/18 11:41:53;;;;;;;8.68;4.30;;;6.90;86.70;;;;;;5016040;28;20084;-68
2022/11/18 11:44:48;;;;;;;8.75;5.40;;;6.90;84.50;;;;;;5023202;28;20414;-70
2022/11/18 11:47:46;;;;;;;10.15;5.13;;;6.90;86.70;;;;;;4980724;28;20043;-69
2022/11/18 11:50:54;;;;;;;5.38;2.70;;;6.90;85.20;;;;;;5017442;28;20095;-69
2022/11/18 11:53:38;;;;;;;15.27;12.02;;;6.90;83.90;;;;;;5006343;28;20030;-69
2022/11/18 11:56:31;;;;;;;11.13;7.68;;;6.80;84.00;;;;;;5016836;28;20030;-69
2022/11/18 11:59:16;;;;;;;14.75;8.98;;;6.80;82.20;;;;;;5017189;28;20372;-69
2022/11/18 12:02:19;;;;;;;16.25;14.52;;;6.80;80.80;;;;;;5016827;28;20342;-69
2022/11/18 12:05:06;;;;;;;10.90;4.40;;;6.90;79.70;;;;;;5025525;28;20030;-69
2022/11/18 12:07:44;;;;;;;6.10;3.80;;;7.00;80.00;;;;;;5001978;28;20022;-68
2022/11/18 12:10:39;;;;;;;5.93;3.85;;;7.10;80.40;;;;;;4984617;28;20426;-69
2022/11/18 12:13:27;;;;;;;7.70;4.70;;;7.10;80.90;;;;;;5034821;28;20029;-70
2022/11/18 12:16:05;;;;;;;5.05;3.35;;;7.10;80.90;;;;;;5022475;28;20079;-69
2022/11/18 12:19:00;;;;;;;8.00;3.85;;;7.20;79.60;;;;;;5036170;28;20018;-69
2022/11/18 12:21:46;;;;;;;6.20;3.55;;;7.30;81.20;;;;;;5016483;28;20104;-69
2022/11/18 12:24:19;;;;;;;4.43;2.75;;;7.20;86.60;;;;;;4998185;28;20025;-68
2022/11/18 12:26:47;;;;;;;4.68;2.00;;;7.20;86.40;;;;;;5021270;28;20415;-69
2022/11/18 12:29:19;;;;;;;7.32;6.03;;;7.20;85.00;;;;;;4998680;28;20049;-68
2022/11/18 12:31:47;;;;;;;5.32;2.65;;;7.20;84.90;;;;;;5016204;28;20025;-69
2022/11/18 12:34:24;;;;;;;7.97;3.58;;;7.30;85.30;;;;;;5018589;28;20038;-68
2022/11/18 12:36:51;;;;;;;8.75;5.63;;;7.30;87.00;;;;;;5035239;28;20034;-69
2022/11/18 12:39:23;;;;;;;7.13;4.13;;;7.40;87.00;;;;;;5032446;28;20465;-69
2022/11/18 12:44:34;;;;;;;3.60;1.90;;;7.90;90.70;;;;;;5031753;28;20109;-68
2022/11/18 12:47:04;;;;;;;4.28;1.60;;;8.30;93.70;;;;;;5029288;28;20033;-68
2022/11/18 12:49:33;;;;;;;3.30;1.58;;;8.50;97.80;;;;;;5032563;28;20046;-68
2022/11/18 12:52:00;;;;;;;6.78;3.33;;;8.50;98.00;;;;;;5014834;28;20396;-68
2022/11/18 12:54:35;;;;;;;6.63;2.58;;;8.30;97.50;;;;;;5025540;28;20025;-69
2022/11/18 12:57:16;;;;;;;4.05;1.73;;;8.10;98.00;;;;;;5034215;28;20026;-69
2022/11/18 12:59:42;;;;;;;3.13;1.30;;;7.90;98.00;;;;;;5034530;28;20026;-69
2022/11/18 13:02:10;;;;;;;2.83;1.30;;;7.80;96.60;;;;;;5034884;28;20429;-69
2022/11/18 13:04:37;;;;;;;4.60;1.73;;;7.60;98.00;;;;;;5031647;28;20466;-68
2022/11/18 13:07:05;;;;;;;16.73;6.97;;;7.50;97.50;;;;;;5027773;28;20052;-69
2022/11/18 13:09:34;;;;;;;8.27;4.05;;;7.40;97.00;;;;;;5031686;28;20030;-68
2022/11/18 13:12:07;;;;;;;6.45;2.60;;;7.40;96.20;;;;;;4998806;28;20033;-68
2022/11/18 13:20:34;;;;;;;8.80;2.95;;;7.40;93.80;;;;;;5022826;28;20044;-69
2022/11/18 13:25:55;;;;;;;6.22;2.72;;;7.50;93.90;;;;;;5019467;28;20128;-69
2022/11/18 13:28:35;;;;;;;8.88;4.13;;;7.70;96.20;;;;;;5035408;28;20045;-69
2022/11/18 13:31:24;;;;;;;6.68;3.03;;;7.80;98.00;;;;;;5023906;28;20093;-69
2022/11/18 13:33:51;;;;;;;7.78;4.05;;;7.90;97.80;;;;;;5015429;28;20025;-68
2022/11/18 13:36:22;;;;;;;9.00;2.53;;;7.90;98.00;;;;;;5030795;28;20030;-68
2022/11/18 13:39:04;;;;;;;8.13;3.50;;;7.90;98.00;;;;;;5031397;28;20345;-68
2022/11/18 13:41:32;;;;;;;6.75;3.10;;;7.80;98.00;;;;;;5038609;28;20032;-68
2022/11/18 13:44:13;;;;;;;5.10;2.28;;;7.80;98.00;;;;;;5039164;28;20104;-68
2022/11/18 13:46:40;;;;;;;5.32;2.30;;;7.80;98.00;;;;;;5023742;28;20030;-69
2022/11/18 13:49:11;;;;;;;4.43;2.30;;;7.80;98.00;;;;;;5034575;28;20029;-69